Woodmoor, Colorado
Current Conditions -  °F | °C
As of 5:58 AM on Thursday 30 Oct 2014 (Local Time) from KAFF Reporting Station
Clear Clear  
Wind Chill: 25°   Ceiling: Unl
Heat Index: 33°   Visibility: 10mi
Dew Point: 22°   Wind: 10mph
Humidity: 62%   Direction: 350°N
Pressure: 30.35"   Gusts: NA
Location:  39.0574°N, 104.903°W
Report Text: KAFF 301158Z AUTO 35009KT 10SM CLR 01/M06 A3035 RMK AO2 SLP265 T00081057 10029 20001 52013
Loading
Personal Weather Stations






























Interactive Weather Map
Tropical Storm Tracking
New forecast layout! Learn more

10-Day Weather Forecast

Advertisements
Track Severe Weather on mobile